Time;durP1;ratioP1;P1;durP2;ratioP2;P2;SDS_P1;SDS_P2;PMS_P1;PMS_P2;Temp;Humidity;BMP_temperature;BMP_pressure;BME280_temperature;BME280_humidity;BME280_pressure;Samples;Min_cycle;Max_cycle;Signal;HPM_P1;HPM_P2
2023/08/17 00:11:45;;;;;;;10.87;6.80;;;26.20;82.80;;;;;;5538872;19;3075216;-80
2023/08/17 00:14:32;;;;;;;11.25;7.07;;;26.20;83.10;;;;;;7421016;19;20010;-81
2023/08/17 00:17:08;;;;;;;13.73;6.90;;;26.20;83.20;;;;;;7419812;19;20014;-80
2023/08/17 00:20:21;;;;;;;;;;;;;;;;;;;;;
2023/08/17 00:23:17;;;;;;;10.35;7.07;;;26.20;83.60;;;;;;7316744;19;2020645;-79
2023/08/17 00:26:02;;;;;;;15.52;7.53;;;26.20;83.60;;;;;;7419453;19;20011;-81
2023/08/17 00:28:50;;;;;;;14.82;7.22;;;26.10;83.60;;;;;;7440313;19;20075;-82
2023/08/17 00:31:43;;;;;;;14.95;8.48;;;26.10;83.70;;;;;;7420418;19;20240;-80
2023/08/17 00:34:18;;;;;;;14.93;7.93;;;26.10;84.00;;;;;;7419847;19;20046;-81
2023/08/17 00:37:15;;;;;;;11.95;8.20;;;26.10;84.20;;;;;;7419446;19;20379;-81
2023/08/17 00:40:33;;;;;;;;;;;;;;;;;;;;;
2023/08/17 00:50:20;;;;;;;11.40;7.63;;;26.00;84.50;;;;;;7418561;19;20027;-80
2023/08/17 01:17:25;;;;;;;12.02;7.85;;;26.10;85.00;;;;;;7048157;19;7631842;-81
2023/08/17 01:20:27;;;;;;;13.90;7.85;;;26.00;85.50;;;;;;7313964;19;2004233;-81
2023/08/17 02:13:02;;;;;;;14.30;8.95;;;25.30;87.90;;;;;;7416014;19;20002;-79
2023/08/17 02:15:51;;;;;;;16.42;9.32;;;25.30;88.20;;;;;;7417583;19;20006;-80
2023/08/17 02:18:37;;;;;;;16.92;9.30;;;25.20;88.20;;;;;;7437467;19;20031;-81
2023/08/17 03:11:11;;;;;;;;;;;;;;;;;;;;;
2023/08/17 03:35:14;;;;;;;19.67;11.37;;;25.50;88.00;;;;;;7316028;19;2004623;-80
2023/08/17 03:41:49;;;;;;;21.20;13.98;;;25.40;88.30;;;;;;7433617;19;20497;-80
2023/08/17 03:48:11;;;;;;;;;;;;;;;;;;;;;
2023/08/17 04:42:31;;;;;;;25.30;14.82;;;24.70;89.70;;;;;;6494804;19;10664496;-80
2023/08/17 04:45:47;;;;;;;;;;;;;;;;;;;;;
2023/08/17 04:48:32;;;;;;;19.35;13.15;;;24.60;90.10;;;;;;7418947;19;20010;-81
2023/08/17 04:52:10;;;;;;;21.98;14.32;;;24.60;90.20;;;;;;7417257;19;20007;-81
2023/08/17 05:21:23;;;;;;;;;;;;;;;;;;;;;
2023/08/17 05:47:48;;;;;;;27.70;16.02;;;24.50;90.50;;;;;;6068401;19;13804462;-81
2023/08/17 05:53:34;;;;;;;40.67;18.83;;;24.60;90.50;;;;;;7422108;19;20021;-80
2023/08/17 05:56:34;;;;;;;;;;;;;;;;;;;;;
2023/08/17 05:59:24;;;;;;;36.47;20.02;;;24.50;90.50;;;;;;7419639;19;20247;-79
2023/08/17 06:04:51;;;;;;;43.97;20.52;;;24.60;90.50;;;;;;7437325;19;20003;-80
2023/08/17 06:07:42;;;;;;;31.27;19.42;;;24.50;90.60;;;;;;7418886;19;20023;-80
2023/08/17 06:46:07;;;;;;;;;;;;;;;;;;;;;
2023/08/17 06:52:23;;;;;;;44.95;21.15;;;24.60;90.50;;;;;;7415810;19;20143;-80
2023/08/17 06:55:10;;;;;;;34.00;19.02;;;24.70;90.30;;;;;;7414688;19;20002;-81
2023/08/17 06:57:58;;;;;;;32.80;18.45;;;24.80;90.30;;;;;;7415188;19;20011;-80
2023/08/17 07:00:55;;;;;;;32.22;17.17;;;24.90;90.30;;;;;;7415454;19;20011;-79
2023/08/17 07:03:24;;;;;;;43.20;17.70;;;25.00;90.20;;;;;;7413413;19;20441;-77
2023/08/17 07:05:53;;;;;;;29.60;18.35;;;25.10;90.20;;;;;;7412009;19;20190;-78
2023/08/17 07:08:25;;;;;;;33.40;18.67;;;25.20;90.20;;;;;;7413001;19;20010;-78
2023/08/17 07:10:53;;;;;;;31.15;19.83;;;25.20;90.10;;;;;;7414816;19;20251;-78
2023/08/17 07:13:22;;;;;;;31.52;20.08;;;25.30;90.00;;;;;;7435188;19;20407;-77
2023/08/17 07:15:51;;;;;;;36.85;21.75;;;25.40;90.00;;;;;;7410974;19;20003;-79
2023/08/17 07:18:19;;;;;;;37.53;20.25;;;25.40;89.90;;;;;;7414914;19;20011;-78
2023/08/17 07:20:49;;;;;;;38.72;23.83;;;25.40;89.70;;;;;;7412890;19;20032;-80
2023/08/17 07:23:17;;;;;;;36.90;22.52;;;25.50;89.70;;;;;;7412704;19;20097;-78
2023/08/17 07:25:49;;;;;;;40.63;23.27;;;25.50;89.40;;;;;;7408322;19;20010;-76
2023/08/17 07:28:17;;;;;;;;;;;25.50;89.40;;;;;;7408391;19;20397;-74
2023/08/17 07:30:46;;;;;;;39.80;22.80;;;25.60;89.40;;;;;;7383733;19;20239;-76
2023/08/17 07:33:15;;;;;;;42.33;24.67;;;25.60;89.00;;;;;;7383566;19;19999;-76
2023/08/17 07:35:43;;;;;;;43.03;22.92;;;25.60;89.10;;;;;;7385317;19;20020;-78
2023/08/17 07:38:12;;;;;;;39.28;24.23;;;25.70;89.10;;;;;;7384678;19;20007;-79
2023/08/17 07:40:42;;;;;;;46.38;26.23;;;25.70;89.20;;;;;;7413508;19;20018;-80
2023/08/17 07:43:14;;;;;;;47.10;27.23;;;25.70;88.90;;;;;;7402017;19;20035;-79
2023/08/17 07:45:45;;;;;;;;;;;25.60;88.60;;;;;;7404084;19;20007;-79
2023/08/17 07:48:42;;;;;;;;;;;25.70;88.90;;;;;;7402608;19;19907;-82
2023/08/17 07:51:10;;;;;;;;;;;25.70;88.80;;;;;;7389693;19;20275;-79
2023/08/17 07:53:39;;;;;;;;;;;25.80;88.70;;;;;;7386905;19;19911;-79
2023/08/17 07:56:07;;;;;;;;;;;25.90;88.70;;;;;;7387039;19;19974;-79
2023/08/17 07:58:47;;;;;;;;;;;25.90;88.00;;;;;;7408552;19;19925;-82
2023/08/17 08:01:15;;;;;;;;;;;25.90;88.20;;;;;;7387371;19;19962;-78
2023/08/17 08:03:44;;;;;;;;;;;26.00;88.00;;;;;;7387179;19;19911;-81
2023/08/17 08:06:12;;;;;;;;;;;26.00;87.60;;;;;;7385436;19;20140;-78
2023/08/17 08:08:41;;;;;;;;;;;26.10;87.30;;;;;;7385810;19;19927;-80
2023/08/17 08:11:09;;;;;;;;;;;26.10;87.10;;;;;;7386071;19;19903;-79
2023/08/17 08:13:40;;;;;;;;;;;26.10;86.90;;;;;;7404107;19;19911;-77
2023/08/17 08:16:09;;;;;;;;;;;26.10;86.90;;;;;;7382307;19;19970;-77
2023/08/17 08:18:37;;;;;;;;;;;26.10;86.90;;;;;;7384185;19;19963;-77
2023/08/17 08:21:06;;;;;;;;;;;26.20;86.80;;;;;;7383272;19;19942;-76
2023/08/17 08:23:40;;;;;;;;;;;26.20;86.90;;;;;;7387129;19;20240;-80
2023/08/17 08:26:09;;;;;;;;;;;26.20;86.90;;;;;;7387545;19;19919;-79
2023/08/17 08:28:40;;;;;;;;;;;26.30;86.90;;;;;;7407777;19;19914;-81
2023/08/17 08:31:11;;;;;;;;;;;26.30;86.40;;;;;;7387778;19;19914;-80
2023/08/17 08:34:03;;;;;;;;;;;26.40;86.30;;;;;;7385981;19;19923;-84
2023/08/17 08:57:56;;;;;;;;;;;26.60;86.00;;;;;;7425583;19;19911;-82
2023/08/17 09:00:27;;;;;;;;;;;26.60;85.50;;;;;;7424639;19;19915;-81
2023/08/17 09:19:10;;;;;;;;;;;26.80;84.20;;;;;;7400603;19;19914;-80
2023/08/17 09:21:42;;;;;;;;;;;26.80;83.90;;;;;;7419074;19;19935;-83
2023/08/17 09:24:10;;;;;;;;;;;26.80;84.10;;;;;;7418663;19;20006;-83
2023/08/17 09:26:45;;;;;;;;;;;26.80;84.40;;;;;;7421606;19;19911;-83
2023/08/17 09:29:24;;;;;;;;;;;26.80;84.10;;;;;;7420168;19;19922;-85
2023/08/17 09:32:11;;;;;;;;;;;26.80;84.10;;;;;;7421731;19;19922;-85
2023/08/17 09:34:49;;;;;;;;;;;26.80;83.80;;;;;;7442761;19;19950;-84
2023/08/17 09:53:56;;;;;;;;;;;26.80;82.20;;;;;;7412866;19;19918;-78
2023/08/17 09:56:26;;;;;;;;;;;26.80;81.60;;;;;;7415939;19;20116;-81
2023/08/17 09:58:55;;;;;;;;;;;26.80;81.20;;;;;;7417369;19;19931;-78
2023/08/17 10:01:24;;;;;;;;;;;26.90;81.60;;;;;;7437456;19;19951;-79
2023/08/17 10:12:39;;;;;;;;;;;26.90;81.90;;;;;;7412982;19;19907;-82
2023/08/17 10:15:18;;;;;;;;;;;27.00;81.30;;;;;;7393201;19;19911;-82
2023/08/17 10:17:52;;;;;;;;;;;27.00;81.50;;;;;;7392128;19;20306;-81
2023/08/17 10:23:17;;;;;;;;;;;27.00;79.60;;;;;;7388185;19;19971;-77
2023/08/17 10:25:46;;;;;;;;;;;27.10;79.30;;;;;;7381522;19;20022;-79
2023/08/17 10:28:17;;;;;;;;;;;27.10;79.60;;;;;;7406508;19;19936;-79
2023/08/17 10:33:58;;;;;;;;;;;27.20;78.80;;;;;;7387057;19;19966;-78
2023/08/17 10:39:51;;;;;;;;;;;27.30;77.60;;;;;;7417924;19;19920;-86
2023/08/17 10:56:56;;;;;;;;;;;27.40;73.00;;;;;;7365266;19;19911;-83
2023/08/17 11:05:07;;;;;;;;;;;27.60;73.10;;;;;;7393592;19;19915;-82
2023/08/17 11:16:40;;;;;;;;;;;27.80;69.00;;;;;;7411261;19;19907;-80
2023/08/17 11:31:26;;;;;;;;;;;28.10;71.50;;;;;;7390109;19;20235;-81
2023/08/17 11:33:57;;;;;;;;;;;28.20;70.80;;;;;;7387565;19;19911;-78
2023/08/17 11:36:25;;;;;;;;;;;28.30;70.70;;;;;;7398085;19;19928;-80
2023/08/17 11:38:54;;;;;;;;;;;28.40;70.80;;;;;;7380923;19;20117;-76
2023/08/17 11:41:23;;;;;;;;;;;28.40;70.30;;;;;;7379807;19;19915;-77
2023/08/17 11:43:52;;;;;;;;;;;28.50;69.80;;;;;;7384013;19;19915;-79
2023/08/17 11:46:22;;;;;;;;;;;28.50;69.00;;;;;;7415846;19;19927;-81
2023/08/17 11:48:57;;;;;;;;;;;28.60;69.60;;;;;;7387179;19;19907;-80
2023/08/17 11:51:35;;;;;;;;;;;28.60;69.60;;;;;;7386322;19;19918;-81
2023/08/17 11:54:07;;;;;;;;;;;28.70;69.90;;;;;;7389863;19;20216;-82
2023/08/17 11:56:37;;;;;;;;;;;28.70;69.30;;;;;;7387937;19;19946;-82
2023/08/17 11:59:18;;;;;;;;;;;28.70;67.70;;;;;;7390275;19;19932;-78
2023/08/17 12:01:46;;;;;;;;;;;28.80;68.80;;;;;;7381791;19;19926;-77
2023/08/17 12:04:15;;;;;;;;;;;28.80;68.20;;;;;;7403400;19;19911;-76
2023/08/17 12:06:47;;;;;;;;;;;28.90;67.30;;;;;;7380053;19;19907;-76
2023/08/17 12:09:16;;;;;;;;;;;28.90;66.40;;;;;;7380969;19;19909;-76
2023/08/17 12:11:46;;;;;;;;;;;28.90;66.30;;;;;;7380595;19;19915;-76
2023/08/17 12:14:15;;;;;;;;;;;28.90;67.70;;;;;;7381220;19;19923;-76
2023/08/17 12:16:50;;;;;;;;;;;29.00;68.30;;;;;;7382086;19;20190;-76
2023/08/17 12:19:19;;;;;;;;;;;29.00;66.80;;;;;;7402204;19;19962;-77
2023/08/17 12:21:50;;;;;;;;;;;29.10;67.00;;;;;;7379750;19;19911;-76
2023/08/17 12:24:19;;;;;;;;;;;29.10;67.70;;;;;;7380045;19;19937;-76
2023/08/17 12:26:48;;;;;;;;;;;29.20;67.50;;;;;;7380115;19;19911;-77
2023/08/17 12:29:16;;;;;;;;;;;29.30;67.20;;;;;;7380342;19;19915;-77
2023/08/17 12:31:45;;;;;;;;;;;29.40;66.30;;;;;;7379153;19;20271;-77
2023/08/17 12:34:14;;;;;;;;;;;29.40;67.00;;;;;;7402279;19;19967;-76
2023/08/17 12:36:45;;;;;;;;;;;29.50;67.40;;;;;;7380360;19;19936;-77
2023/08/17 12:39:16;;;;;;;;;;;29.50;66.90;;;;;;7379540;19;19924;-76
2023/08/17 12:41:45;;;;;;;;;;;29.60;65.80;;;;;;7379968;19;19910;-76
2023/08/17 12:44:14;;;;;;;;;;;29.60;66.30;;;;;;7379703;19;19915;-76
2023/08/17 12:46:43;;;;;;;;;;;29.70;66.50;;;;;;7388487;19;19919;-76
2023/08/17 12:49:12;;;;;;;;;;;29.80;64.40;;;;;;7400724;19;19970;-76
2023/08/17 12:51:40;;;;;;;;;;;29.70;62.10;;;;;;7378617;19;19907;-77
2023/08/17 12:54:09;;;;;;;;;;;29.70;62.70;;;;;;7379588;19;19907;-77
2023/08/17 12:56:40;;;;;;;;;;;29.70;64.00;;;;;;7378119;19;19989;-76
2023/08/17 13:02:05;;;;;;;;;;;29.90;64.70;;;;;;7381977;19;19914;-80
2023/08/17 13:04:46;;;;;;;;;;;29.90;64.40;;;;;;7406154;19;20106;-84
2023/08/17 13:07:15;;;;;;;;;;;30.00;64.20;;;;;;7381630;19;19911;-77
2023/08/17 13:09:46;;;;;;;;;;;30.00;64.90;;;;;;7378706;19;19958;-77
2023/08/17 13:12:19;;;;;;;;;;;30.10;65.20;;;;;;7379704;19;19930;-80
2023/08/17 13:14:48;;;;;;;;;;;30.20;65.20;;;;;;7383434;19;19974;-79
2023/08/17 13:17:19;;;;;;;;;;;30.20;65.30;;;;;;7384365;19;20246;-81
2023/08/17 13:19:48;;;;;;;;;;;30.30;65.20;;;;;;7384309;19;19930;-81
2023/08/17 13:22:17;;;;;;;;;;;30.30;65.00;;;;;;7404320;19;19939;-79
2023/08/17 13:27:29;;;;;;;;;;;30.40;66.70;;;;;;7384304;19;20333;-77
2023/08/17 13:29:58;;;;;;;;;;;30.50;66.10;;;;;;7385239;19;19915;-75
2023/08/17 13:32:26;;;;;;;;;;;30.50;65.90;;;;;;7379319;19;19907;-76
2023/08/17 13:34:55;;;;;;;;;;;30.60;65.10;;;;;;7377560;19;19915;-77
2023/08/17 13:37:24;;;;;;;;;;;30.60;65.40;;;;;;7398099;19;20255;-76
2023/08/17 13:39:55;;;;;;;;;;;30.60;65.10;;;;;;7379325;19;19911;-77
2023/08/17 13:45:24;;;;;;;;;;;30.70;63.50;;;;;;7395919;19;19985;-81
2023/08/17 13:47:52;;;;;;;;;;;30.80;65.20;;;;;;7391029;19;19903;-81
2023/08/17 13:50:31;;;;;;;;;;;;;;;;;;;;;
2023/08/17 13:53:21;;;;;;;;;;;30.80;65.60;;;;;;7392587;19;19933;-82
2023/08/17 13:55:49;;;;;;;;;;;30.80;65.70;;;;;;7393163;19;20178;-80
2023/08/17 13:58:26;;;;;;;;;;;30.80;66.10;;;;;;7412895;19;19911;-81
2023/08/17 14:00:59;;;;;;;;;;;30.90;65.00;;;;;;7391347;19;20152;-81
2023/08/17 14:03:31;;;;;;;;;;;30.90;64.70;;;;;;7389630;19;19907;-82
2023/08/17 14:16:48;;;;;;;;;;;31.20;65.50;;;;;;7380900;19;19919;-83
2023/08/17 14:25:06;;;;;;;;;;;31.40;63.90;;;;;;7389048;19;20028;-80
2023/08/17 14:27:34;;;;;;;;;;;31.40;63.70;;;;;;7386972;19;19915;-82
2023/08/17 14:30:03;;;;;;;;;;;31.50;64.10;;;;;;7385640;19;19927;-80
2023/08/17 14:35:31;;;;;;;;;;;31.60;64.00;;;;;;7391536;19;19914;-79
2023/08/17 14:38:01;;;;;;;;;;;31.60;64.60;;;;;;7383126;19;19984;-79
2023/08/17 14:40:30;;;;;;;;;;;31.60;64.70;;;;;;7408140;19;19913;-81
2023/08/17 14:42:58;;;;;;;;;;;31.70;64.40;;;;;;7387132;19;19915;-81
2023/08/17 14:45:27;;;;;;;;;;;31.70;64.60;;;;;;7385582;19;19956;-82
2023/08/17 14:50:44;;;;;;;;;;;31.80;64.30;;;;;;7387582;19;19978;-81
2023/08/17 14:53:13;;;;;;;;;;;31.70;63.90;;;;;;7387126;19;19914;-81
2023/08/17 14:55:41;;;;;;;;;;;31.70;64.20;;;;;;7409230;19;19921;-81
2023/08/17 15:12:52;;;;;;;;;;;31.90;63.50;;;;;;7384954;19;20183;-84
2023/08/17 15:27:11;;;;;;;;;;;32.00;62.80;;;;;;7375331;19;19915;-84
2023/08/17 15:35:40;;;;;;;;;;;32.20;63.50;;;;;;7389972;19;19926;-82
2023/08/17 15:38:08;;;;;;;;;;;32.20;62.90;;;;;;7390191;19;19914;-81
2023/08/17 15:41:04;;;;;;;;;;;32.30;63.40;;;;;;7408680;19;19907;-82
2023/08/17 15:43:32;;;;;;;;;;;32.30;62.00;;;;;;7386631;19;19946;-80
2023/08/17 15:46:01;;;;;;;;;;;32.30;61.50;;;;;;7408373;19;19914;-78
2023/08/17 15:48:30;;;;;;;;;;;32.30;61.60;;;;;;7382272;19;19918;-77
2023/08/17 15:51:01;;;;;;;;;;;32.40;61.50;;;;;;7383999;19;19970;-80
2023/08/17 15:53:30;;;;;;;;;;;32.40;61.30;;;;;;7385361;19;19963;-79
2023/08/17 15:55:58;;;;;;;;;;;32.50;61.40;;;;;;7384814;19;19927;-77
2023/08/17 15:58:27;;;;;;;;;;;32.50;60.90;;;;;;7403861;19;19978;-79
2023/08/17 16:00:55;;;;;;;;;;;32.60;60.60;;;;;;7381024;19;19924;-76
2023/08/17 16:03:23;;;;;;;;;;;32.60;60.30;;;;;;7380576;19;19920;-76
2023/08/17 16:05:54;;;;;;;;;;;32.70;60.70;;;;;;7380163;19;20219;-76
2023/08/17 16:08:25;;;;;;;;;;;32.80;60.70;;;;;;7383200;19;19923;-76
2023/08/17 16:10:54;;;;;;;;;;;33.10;60.50;;;;;;7382026;19;19914;-75
2023/08/17 16:13:22;;;;;;;;;;;33.60;58.90;;;;;;7402945;19;20143;-76
2023/08/17 16:15:50;;;;;;;;;;;34.10;58.10;;;;;;7380887;19;19916;-77
2023/08/17 16:18:19;;;;;;;;;;;35.00;56.80;;;;;;7378685;19;19911;-77
2023/08/17 16:20:47;;;;;;;;;;;35.80;55.70;;;;;;7384382;19;20230;-77
2023/08/17 16:23:16;;;;;;;;;;;36.60;54.40;;;;;;7384967;19;20263;-77
2023/08/17 16:25:47;;;;;;;;;;;37.50;53.40;;;;;;7384695;19;20197;-76
2023/08/17 16:28:16;;;;;;;;;;;38.30;52.00;;;;;;7405489;19;19928;-76
2023/08/17 16:30:44;;;;;;;;;;;38.90;50.50;;;;;;7384246;19;19963;-77
2023/08/17 16:33:13;;;;;;;;;;;39.40;50.00;;;;;;7384803;19;19927;-76
2023/08/17 16:35:43;;;;;;;;;;;39.90;49.20;;;;;;7385042;19;19920;-75
2023/08/17 16:38:12;;;;;;;;;;;40.40;48.90;;;;;;7384357;19;19915;-76
2023/08/17 16:40:40;;;;;;;;;;;40.70;48.40;;;;;;7406547;19;20160;-76
2023/08/17 16:43:11;;;;;;;;;;;41.00;47.70;;;;;;7385579;19;19928;-77
2023/08/17 16:45:40;;;;;;;;;;;41.50;47.60;;;;;;7384724;19;19919;-77
2023/08/17 16:48:09;;;;;;;;;;;41.90;46.60;;;;;;7386149;19;19962;-77
2023/08/17 16:50:37;;;;;;;;;;;42.20;46.30;;;;;;7385751;19;19927;-76
2023/08/17 16:53:06;;;;;;;;;;;42.40;45.50;;;;;;7386370;19;19970;-77
2023/08/17 16:55:34;;;;;;;;;;;42.60;45.40;;;;;;7407638;19;19930;-76
2023/08/17 16:58:03;;;;;;;;;;;42.70;45.60;;;;;;7384122;19;19970;-76
2023/08/17 17:00:35;;;;;;;;;;;42.90;45.60;;;;;;7383259;19;20233;-77
2023/08/17 17:03:03;;;;;;;;;;;42.90;45.20;;;;;;7388665;19;19968;-76
2023/08/17 17:05:31;;;;;;;;;;;43.00;45.00;;;;;;7384953;19;19914;-76
2023/08/17 17:08:00;;;;;;;;;;;43.20;44.90;;;;;;7383859;19;19923;-76
2023/08/17 17:10:28;;;;;;;;;;;43.20;44.70;;;;;;7407598;19;19914;-77
2023/08/17 17:12:57;;;;;;;;;;;43.20;45.10;;;;;;7384122;19;20235;-77
2023/08/17 17:15:25;;;;;;;;;;;43.10;45.30;;;;;;7383295;19;19911;-76
2023/08/17 17:17:57;;;;;;;;;;;42.90;45.60;;;;;;7385217;19;19917;-76
2023/08/17 17:20:25;;;;;;;;;;;42.90;45.80;;;;;;7391617;19;19932;-75
2023/08/17 17:22:54;;;;;;;;;;;42.80;46.10;;;;;;7391105;19;20140;-77
2023/08/17 17:25:22;;;;;;;;;;;42.50;46.40;;;;;;7414783;19;19919;-76
2023/08/17 17:27:51;;;;;;;;;;;42.30;46.70;;;;;;7390502;19;19935;-78
2023/08/17 17:30:19;;;;;;;;;;;42.20;47.10;;;;;;7391719;19;19928;-77
2023/08/17 17:32:47;;;;;;;;;;;42.00;47.50;;;;;;7390862;19;19914;-77
2023/08/17 17:35:20;;;;;;;;;;;41.90;47.50;;;;;;7390854;19;19906;-76
2023/08/17 17:37:49;;;;;;;;;;;41.80;47.40;;;;;;7392482;19;19931;-77
2023/08/17 17:40:17;;;;;;;;;;;41.80;47.40;;;;;;7415697;19;19923;-77
2023/08/17 17:42:46;;;;;;;;;;;41.80;47.60;;;;;;7391704;19;19911;-77
2023/08/17 17:45:14;;;;;;;;;;;41.70;47.40;;;;;;7392317;19;19927;-78
2023/08/17 17:47:53;;;;;;;;;;;;;;;;;;;;;
2023/08/17 17:50:24;;;;;;;;;;;41.60;47.80;;;;;;7396194;19;19911;-80
2023/08/17 17:52:53;;;;;;;;;;;41.40;47.90;;;;;;7396372;19;19935;-80
2023/08/17 17:55:21;;;;;;;;;;;41.20;48.10;;;;;;7413950;19;19911;-77
2023/08/17 17:57:50;;;;;;;;;;;40.80;48.60;;;;;;7390418;19;19936;-77
2023/08/17 18:00:18;;;;;;;;;;;40.40;48.90;;;;;;7390818;19;19928;-76
2023/08/17 18:02:47;;;;;;;;;;;39.80;49.70;;;;;;7389218;19;20176;-76
2023/08/17 18:05:15;;;;;;;;;;;39.10;50.50;;;;;;7390246;19;19915;-76
2023/08/17 18:07:46;;;;;;;;;;;38.20;52.10;;;;;;7392237;19;19907;-76
2023/08/17 18:10:14;;;;;;;;;;;37.30;53.90;;;;;;7411712;19;19911;-75
2023/08/17 18:12:43;;;;;;;;;;;36.40;55.40;;;;;;7389023;19;20215;-76
2023/08/17 18:15:11;;;;;;;;;;;35.60;57.20;;;;;;7389844;19;20007;-76
2023/08/17 18:17:40;;;;;;;;;;;34.90;58.70;;;;;;7395550;19;19911;-76
2023/08/17 18:20:10;;;;;;;;;;;34.30;60.20;;;;;;7387179;19;19915;-76
2023/08/17 18:22:38;;;;;;;;;;;33.80;61.70;;;;;;7412091;19;19911;-76
2023/08/17 18:25:10;;;;;;;;;;;33.30;62.90;;;;;;7390341;19;20552;-76
2023/08/17 18:27:40;;;;;;;;;;;33.00;63.80;;;;;;7390213;19;19915;-76
2023/08/17 18:30:09;;;;;;;;;;;32.60;64.90;;;;;;7388618;19;19928;-76
2023/08/17 18:32:38;;;;;;;;;;;32.30;65.70;;;;;;7390670;19;20135;-75
2023/08/17 18:35:06;;;;;;;;;;;32.10;66.70;;;;;;7390246;19;19911;-76
2023/08/17 18:37:36;;;;;;;;;;;31.80;67.20;;;;;;7412208;19;19911;-75
2023/08/17 18:40:05;;;;;;;;;;;31.50;68.20;;;;;;7388726;19;19995;-76
2023/08/17 18:42:36;;;;;;;;;;;31.30;68.80;;;;;;7388437;19;19911;-75
2023/08/17 18:45:04;;;;;;;;;;;31.10;69.80;;;;;;7388857;19;20034;-76
2023/08/17 18:47:33;;;;;;;;;;;30.90;70.70;;;;;;7388594;19;20259;-77
2023/08/17 18:50:01;;;;;;;;;;;30.80;71.30;;;;;;7386821;19;19915;-76
2023/08/17 18:52:29;;;;;;;;;;;30.60;71.50;;;;;;7408621;19;19918;-75
2023/08/17 18:55:02;;;;;;;;;;;30.50;71.60;;;;;;7388164;19;19915;-76
2023/08/17 18:57:31;;;;;;;;;;;30.40;71.90;;;;;;7388617;19;19922;-76
2023/08/17 19:00:02;;;;;;;;;;;30.30;72.50;;;;;;7387825;19;19910;-76
2023/08/17 19:02:31;;;;;;;;;;;30.10;72.70;;;;;;7387018;19;20232;-76
2023/08/17 19:04:59;;;;;;;;;;;30.00;73.00;;;;;;7387058;19;19907;-76
2023/08/17 19:07:28;;;;;;;;;;;29.90;73.00;;;;;;7408845;19;19915;-77
2023/08/17 19:09:57;;;;;;;;;;;29.80;73.20;;;;;;7385641;19;19918;-76
2023/08/17 19:12:25;;;;;;;;;;;29.70;73.70;;;;;;7387228;19;20188;-76
2023/08/17 19:14:54;;;;;;;;;;;29.60;74.20;;;;;;7385416;19;19935;-75
2023/08/17 19:17:25;;;;;;;;;;;29.50;74.30;;;;;;7386620;19;20250;-75
2023/08/17 19:19:54;;;;;;;;;;;29.40;74.40;;;;;;7388791;19;19980;-76
2023/08/17 19:22:22;;;;;;;;;;;29.30;74.70;;;;;;7409414;19;19931;-76
2023/08/17 19:24:51;;;;;;;;;;;29.20;74.70;;;;;;7386963;19;19919;-77
2023/08/17 19:27:19;;;;;;;;;;;29.10;75.00;;;;;;7386391;19;20222;-76
2023/08/17 19:29:47;;;;;;;;;;;29.10;75.20;;;;;;7386629;19;19919;-74
2023/08/17 19:32:16;;;;;;;;;;;29.00;75.70;;;;;;7387037;19;19907;-76
2023/08/17 19:34:47;;;;;;;;;;;29.00;76.20;;;;;;7387430;19;19928;-77
2023/08/17 19:37:15;;;;;;;;;;;28.90;76.20;;;;;;7409246;19;19923;-75
2023/08/17 19:39:44;;;;;;;;;;;28.90;76.20;;;;;;7384944;19;19915;-75
2023/08/17 19:42:12;;;;;;;;;;;28.90;76.30;;;;;;7385184;19;19924;-76
2023/08/17 19:44:41;;;;;;;;;;;28.80;76.50;;;;;;7385002;19;19918;-75
2023/08/17 19:47:11;;;;;;;;;;;28.80;76.70;;;;;;7386774;19;19907;-75
2023/08/17 19:49:39;;;;;;;;;;;28.70;76.70;;;;;;7408466;19;19923;-76
2023/08/17 19:52:10;;;;;;;;;;;28.70;76.90;;;;;;7386568;19;19915;-76
2023/08/17 19:54:38;;;;;;;;;;;28.70;77.00;;;;;;7386056;19;19923;-76
2023/08/17 19:57:08;;;;;;;;;;;28.60;77.10;;;;;;7386524;19;19922;-77
2023/08/17 19:59:37;;;;;;;;;;;28.60;77.00;;;;;;7387076;19;20176;-76
2023/08/17 20:02:05;;;;;;;;;;;28.60;76.90;;;;;;7386203;19;19907;-77
2023/08/17 20:04:33;;;;;;;;;;;28.60;77.10;;;;;;7409049;19;19914;-76
2023/08/17 20:07:03;;;;;;;;;;;28.60;77.20;;;;;;7385855;19;19934;-76
2023/08/17 20:09:34;;;;;;;;;;;28.60;77.20;;;;;;7385225;19;19911;-76
2023/08/17 20:12:05;;;;;;;;;;;28.50;77.50;;;;;;7385963;19;19911;-76
2023/08/17 20:14:35;;;;;;;;;;;28.50;77.40;;;;;;7386920;19;20302;-75
2023/08/17 20:17:03;;;;;;;;;;;28.40;77.40;;;;;;7385538;19;20315;-76
2023/08/17 20:19:32;;;;;;;;;;;28.30;77.60;;;;;;7407990;19;20287;-77
2023/08/17 20:22:00;;;;;;;;;;;28.30;77.70;;;;;;7385157;19;19974;-76
2023/08/17 20:24:30;;;;;;;;;;;28.20;78.00;;;;;;7385560;19;19907;-76
2023/08/17 20:27:01;;;;;;;;;;;28.10;78.00;;;;;;7385077;19;19903;-74
2023/08/17 20:29:30;;;;;;;;;;;28.10;78.60;;;;;;7385303;19;19907;-76
2023/08/17 20:31:58;;;;;;;;;;;28.00;78.80;;;;;;7384874;19;19922;-76
2023/08/17 20:34:27;;;;;;;;;;;28.00;78.90;;;;;;7407672;19;19936;-76
2023/08/17 20:36:56;;;;;;;;;;;28.00;79.10;;;;;;7384378;19;19907;-76
2023/08/17 20:39:24;;;;;;;;;;;28.00;79.20;;;;;;7384855;19;19910;-75
2023/08/17 20:41:52;;;;;;;;;;;28.00;79.40;;;;;;7385127;19;20200;-76
2023/08/17 20:44:23;;;;;;;;;;;28.00;79.30;;;;;;7384886;19;19935;-76
2023/08/17 20:46:52;;;;;;;;;;;28.00;79.20;;;;;;7385332;19;20145;-77
2023/08/17 20:49:20;;;;;;;;;;;28.00;79.10;;;;;;7406330;19;20007;-76
2023/08/17 20:51:50;;;;;;;;;;;28.00;79.30;;;;;;7384231;19;19907;-77
2023/08/17 20:54:18;;;;;;;;;;;28.00;79.40;;;;;;7385182;19;19928;-77
2023/08/17 20:56:46;;;;;;;;;;;28.00;79.40;;;;;;7386777;19;19919;-78
2023/08/17 20:59:15;;;;;;;;;;;27.90;79.40;;;;;;7386827;19;19939;-77
2023/08/17 21:01:46;;;;;;;;;;;28.00;79.70;;;;;;7389469;19;19907;-76
2023/08/17 21:04:15;;;;;;;;;;;28.00;79.60;;;;;;7404702;19;19919;-77
2023/08/17 21:06:43;;;;;;;;;;;28.00;79.70;;;;;;7383632;19;19915;-77
2023/08/17 21:09:12;;;;;;;;;;;28.00;79.70;;;;;;7383386;19;20040;-77
2023/08/17 21:11:40;;;;;;;;;;;28.00;79.70;;;;;;7383530;19;19966;-77
2023/08/17 21:14:09;;;;;;;;;;;28.00;79.60;;;;;;7384775;19;19918;-76
2023/08/17 21:16:37;;;;;;;;;;;27.90;79.50;;;;;;7407306;19;19932;-77
2023/08/17 21:19:09;;;;;;;;;;;27.90;79.50;;;;;;7384216;19;20215;-77
2023/08/17 21:21:37;;;;;;;;;;;27.90;79.70;;;;;;7383448;19;19935;-77
2023/08/17 21:24:06;;;;;;;;;;;27.90;79.70;;;;;;7383850;19;19921;-77
2023/08/17 21:26:35;;;;;;;;;;;27.80;79.60;;;;;;7384699;19;19911;-77
2023/08/17 21:29:03;;;;;;;;;;;27.80;79.80;;;;;;7384978;19;19908;-77
2023/08/17 21:31:32;;;;;;;;;;;27.80;79.90;;;;;;7406652;19;19919;-77
2023/08/17 21:34:01;;;;;;;;;;;27.70;80.00;;;;;;7383908;19;19910;-77
2023/08/17 21:36:32;;;;;;;;;;;27.70;80.00;;;;;;7383993;19;20264;-77
2023/08/17 21:39:00;;;;;;;;;;;27.70;80.00;;;;;;7383584;19;20119;-77
2023/08/17 21:41:29;;;;;;;;;;;27.70;79.90;;;;;;7384731;19;19924;-77
2023/08/17 21:43:58;;;;;;;;;;;27.70;80.00;;;;;;7384402;19;19923;-76
2023/08/17 21:46:27;;;;;;;;;;;27.60;80.00;;;;;;7402454;19;19915;-77
2023/08/17 21:48:55;;;;;;;;;;;27.70;80.20;;;;;;7382432;19;19911;-76
2023/08/17 21:51:24;;;;;;;;;;;27.60;80.10;;;;;;7382190;19;20124;-77
2023/08/17 21:53:55;;;;;;;;;;;27.70;80.20;;;;;;7383238;19;19923;-77
2023/08/17 21:56:23;;;;;;;;;;;27.60;79.50;;;;;;7383414;19;19914;-76
2023/08/17 21:58:52;;;;;;;;;;;27.70;79.70;;;;;;7381860;19;19919;-75
2023/08/17 22:01:20;;;;;;;;;;;27.70;79.70;;;;;;7405160;19;19931;-78
2023/08/17 22:03:48;;;;;;;;;;;27.70;79.60;;;;;;7385139;19;19943;-77
2023/08/17 22:06:17;;;;;;;;;;;27.80;79.50;;;;;;7390700;19;19911;-77
2023/08/17 22:08:45;;;;;;;;;;;27.80;79.40;;;;;;7389872;19;19973;-75
2023/08/17 22:11:16;;;;;;;;;;;27.80;79.50;;;;;;7387977;19;19961;-76
2023/08/17 22:13:45;;;;;;;;;;;27.70;79.50;;;;;;7390391;19;19932;-77
2023/08/17 22:16:13;;;;;;;;;;;27.70;79.20;;;;;;7412196;19;19923;-76
2023/08/17 22:18:42;;;;;;;;;;;27.70;79.20;;;;;;7388684;19;19915;-76
2023/08/17 22:21:10;;;;;;;;;;;27.70;79.40;;;;;;7390612;19;19915;-76
2023/08/17 22:23:38;;;;;;;;;;;27.70;79.50;;;;;;7391614;19;20223;-77
2023/08/17 22:26:07;;;;;;;;;;;27.60;79.60;;;;;;7389060;19;20483;-77
2023/08/17 22:28:38;;;;;;;;;;;27.50;79.60;;;;;;7412506;19;19923;-77
2023/08/17 22:31:07;;;;;;;;;;;27.50;79.80;;;;;;7387709;19;19979;-76
2023/08/17 22:33:36;;;;;;;;;;;27.50;79.90;;;;;;7389383;19;19939;-77
2023/08/17 22:36:05;;;;;;;;;;;27.50;80.00;;;;;;7388609;19;19911;-77
2023/08/17 22:38:34;;;;;;;;;;;27.40;80.00;;;;;;7388377;19;20032;-76
2023/08/17 22:41:02;;;;;;;;;;;27.40;80.20;;;;;;7390656;19;19972;-77
2023/08/17 22:43:30;;;;;;;;;;;27.40;80.40;;;;;;7410139;19;19914;-77
2023/08/17 22:46:03;;;;;;;;;;;27.40;80.50;;;;;;7391940;19;19903;-78
2023/08/17 22:48:32;;;;;;;;;;;27.30;80.70;;;;;;7389721;19;19932;-77
2023/08/17 22:51:01;;;;;;;;;;;27.30;80.90;;;;;;7388870;19;20231;-76
2023/08/17 22:53:29;;;;;;;;;;;27.20;81.00;;;;;;7388642;19;19907;-77